Paamiut

KL  EN  DA
ASIAQ
Weather Now GREENLAND SURVEY
Updated [WGT/WGST] Temperature [°C] Wind [m/s] Air pressure [hPa] Relative humidity [%] Precipitation [mm]
Present Wind chill Speed Max
25.02 08:00-9,4-17,25,7 ⇖6,71009520,0
25.02 07:00-9,3-15,94,2 ⇐5,11009480,0
25.02 06:00-9,5-16,85,0 ⇖5,81010500,0
25.02 05:00-10,1-18,15,7 ⇐6,91010520,0
25.02 04:00-10,6-18,04,8 ⇐5,61011530,0
25.02 03:00-10,9-15,12,0 ⇖2,81011570,0
25.02 02:00-10,1-16,63,9 ⇐4,61011560,0
25.02 01:00-10,6-17,03,7 ⇖4,61011620,0
25.02 00:00-10,4-15,72,8 ⇖4,11011590,0
24.02 23:00-10,9-17,33,6 ⇖4,61012730,0
24.02 22:00-10,4-15,62,7 ⇖3,51012780,0
24.02 21:00-10,2-15,12,5 ⇖3,71011720,0
24.02 20:00-9,2-13,22,0 ⇓3,01010710,0
24.02 19:00-9,7-16,24,0 ⇙5,81010800,0
24.02 18:00-9,4-14,52,7 ⇓3,91009830,0
24.02 17:00-9,3-15,84,0 ⇓5,51008850,0
24.02 16:00-9,4-17,45,9 ⇓7,21007830,0
24.02 15:00-8,6-15,75,0 ⇓7,01005780,0
24.02 14:00-8,8-16,86,3 ⇘9,11004800,0
24.02 13:00-8,2-17,79,6 ⇘14,11002850,0
24.02 12:00-9,30,01,3 ⇘2,31002840,0
24.02 11:00-8,60,01,3 ⇓2,21001700,0
24.02 10:00-8,2-12,72,5 ⇓4,7999540,0
24.02 09:00-8,5-14,33,5 ⇐4,2998520,0
24.02 08:00-9,2-14,93,3 ⇐4,3997490,0
Position: (62.01666667,-49.666667)

[Back]